Time;durP1;ratioP1;P1;durP2;ratioP2;P2;SDS_P1;SDS_P2;PMS_P1;PMS_P2;Temp;Humidity;BMP_temperature;BMP_pressure;BME280_temperature;BME280_humidity;BME280_pressure;Samples;Min_cycle;Max_cycle;Signal;HPM_P1;HPM_P2
2022/04/30 00:03:33;;;;;;;;;;;21.80;33.60;;;;;;8333587;28;19933;-46
2022/04/30 00:07:33;;;;;;;;;;;21.80;33.60;;;;;;8334001;28;20028;-47
2022/04/30 00:11:33;;;;;;;;;;;21.80;33.70;;;;;;8334150;28;19920;-45
2022/04/30 00:15:34;;;;;;;;;;;21.70;33.70;;;;;;8334126;28;20374;-46
2022/04/30 00:19:34;;;;;;;;;;;21.70;33.70;;;;;;8333866;28;19924;-45
2022/04/30 00:23:35;;;;;;;;;;;21.70;33.70;;;;;;8332889;28;20014;-45
2022/04/30 00:27:35;;;;;;;;;;;21.70;33.70;;;;;;8339830;28;19930;-44
2022/04/30 00:31:36;;;;;;;;;;;21.70;33.70;;;;;;8399758;28;19923;-46
2022/04/30 00:35:37;;;;;;;;;;;21.70;33.80;;;;;;8339753;28;19921;-46
2022/04/30 00:39:37;;;;;;;;;;;21.70;33.80;;;;;;8333530;28;20551;-45
2022/04/30 00:43:48;;;;;;;;;;;21.70;33.90;;;;;;8332881;28;19925;-47
2022/04/30 00:47:48;;;;;;;;;;;21.70;33.90;;;;;;8334440;28;19917;-46
2022/04/30 00:51:50;;;;;;;;;;;21.70;33.90;;;;;;8332906;28;19967;-46
2022/04/30 00:55:50;;;;;;;;;;;21.60;33.90;;;;;;8332776;28;20333;-45
2022/04/30 00:59:54;;;;;;;;;;;21.60;34.00;;;;;;8331809;28;19964;-45
2022/04/30 01:03:54;;;;;;;;;;;21.60;34.00;;;;;;8331986;28;19929;-45
2022/04/30 01:07:54;;;;;;;;;;;21.60;34.00;;;;;;8332466;28;20388;-45
2022/04/30 01:11:56;;;;;;;;;;;21.60;34.00;;;;;;8331908;28;19920;-46
2022/04/30 01:15:58;;;;;;;;;;;21.60;34.00;;;;;;8332310;28;20401;-46
2022/04/30 01:19:59;;;;;;;;;;;21.60;34.00;;;;;;8332113;28;19917;-45
2022/04/30 01:24:00;;;;;;;;;;;21.60;34.10;;;;;;8331087;28;19932;-45
2022/04/30 01:28:01;;;;;;;;;;;21.60;34.10;;;;;;8331473;28;19917;-45
2022/04/30 01:40:40;;;;;;;;;;;21.60;34.20;;;;;;8336322;28;20303;-45
2022/04/30 01:44:41;;;;;;;;;;;21.50;34.10;;;;;;8330463;28;19957;-45
2022/04/30 01:48:41;;;;;;;;;;;21.50;34.20;;;;;;8330916;28;19924;-45
2022/04/30 01:52:42;;;;;;;;;;;21.50;34.20;;;;;;8331352;28;19913;-45
2022/04/30 01:56:43;;;;;;;;;;;21.50;34.20;;;;;;8330519;28;19913;-45
2022/04/30 02:00:43;;;;;;;;;;;21.50;34.20;;;;;;8330590;28;20297;-44
2022/04/30 02:04:44;;;;;;;;;;;21.50;34.20;;;;;;8330904;28;19932;-44
2022/04/30 02:08:44;;;;;;;;;;;21.50;34.20;;;;;;8329422;28;20012;-45
2022/04/30 02:12:46;;;;;;;;;;;21.50;34.30;;;;;;8330344;28;20051;-45
2022/04/30 02:16:46;;;;;;;;;;;21.40;34.30;;;;;;8330510;28;20121;-45
2022/04/30 02:20:49;;;;;;;;;;;21.50;34.40;;;;;;8329676;28;19921;-45
2022/04/30 02:24:50;;;;;;;;;;;21.40;34.30;;;;;;8330366;28;20003;-44
2022/04/30 02:28:50;;;;;;;;;;;21.40;34.30;;;;;;8330447;28;19921;-48
2022/04/30 02:32:52;;;;;;;;;;;21.40;34.30;;;;;;8329898;28;19913;-47
2022/04/30 02:36:52;;;;;;;;;;;21.40;34.30;;;;;;8330236;28;19971;-44
2022/04/30 02:40:52;;;;;;;;;;;21.40;34.30;;;;;;8330058;28;20002;-46
2022/04/30 02:44:53;;;;;;;;;;;21.40;34.40;;;;;;8329537;28;20436;-45
2022/04/30 02:48:53;;;;;;;;;;;21.40;34.40;;;;;;8329981;28;20371;-46
2022/04/30 02:52:55;;;;;;;;;;;21.40;34.90;;;;;;8329990;28;19955;-44
2022/04/30 02:56:55;;;;;;;;;;;21.40;34.40;;;;;;8329378;28;19917;-46
2022/04/30 03:00:58;;;;;;;;;;;21.40;34.40;;;;;;8329760;28;20386;-45
2022/04/30 03:04:58;;;;;;;;;;;21.30;34.40;;;;;;8329979;28;19925;-45
2022/04/30 03:08:59;;;;;;;;;;;21.30;34.40;;;;;;8328998;28;20325;-45
2022/04/30 03:13:00;;;;;;;;;;;21.30;34.40;;;;;;8329748;28;20000;-45
2022/04/30 03:25:29;;;;;;;;;;;21.30;34.40;;;;;;8341416;28;19960;-45
2022/04/30 03:29:29;;;;;;;;;;;21.30;34.40;;;;;;8335132;28;19925;-45
2022/04/30 03:33:30;;;;;;;;;;;21.30;34.40;;;;;;8334714;28;19913;-45
2022/04/30 03:37:32;;;;;;;;;;;21.30;34.40;;;;;;8335549;28;20003;-46
2022/04/30 03:41:33;;;;;;;;;;;21.30;34.50;;;;;;8334880;28;19929;-45
2022/04/30 03:45:34;;;;;;;;;;;21.30;34.40;;;;;;8334558;28;20337;-45
2022/04/30 03:49:34;;;;;;;;;;;21.30;34.40;;;;;;8334849;28;19925;-45
2022/04/30 03:53:35;;;;;;;;;;;21.30;34.40;;;;;;8334103;28;19914;-46
2022/04/30 03:57:36;;;;;;;;;;;21.30;34.40;;;;;;8334915;28;19913;-45
2022/04/30 04:01:37;;;;;;;;;;;21.30;34.40;;;;;;8334392;28;19971;-44
2022/04/30 04:05:38;;;;;;;;;;;21.30;34.30;;;;;;8348339;28;20020;-45
2022/04/30 04:09:38;;;;;;;;;;;21.30;34.40;;;;;;8367323;28;20404;-44
2022/04/30 04:17:58;;;;;;;;;;;21.30;34.40;;;;;;8366644;28;19958;-44
2022/04/30 04:21:59;;;;;;;;;;;21.30;34.30;;;;;;8366612;28;20286;-44
2022/04/30 04:26:00;;;;;;;;;;;21.40;34.30;;;;;;8366642;28;19921;-44
2022/04/30 04:30:00;;;;;;;;;;;21.40;34.20;;;;;;8365915;28;19920;-45
2022/04/30 04:34:01;;;;;;;;;;;21.40;34.20;;;;;;8365711;28;19962;-45
2022/04/30 04:38:02;;;;;;;;;;;21.50;34.20;;;;;;8366467;28;19913;-45
2022/04/30 04:42:03;;;;;;;;;;;21.50;34.20;;;;;;8365365;28;19939;-47
2022/04/30 04:46:04;;;;;;;;;;;21.50;34.20;;;;;;8365815;28;19917;-47
2022/04/30 04:50:04;;;;;;;;;;;21.50;34.30;;;;;;8365702;28;19924;-44
2022/04/30 04:54:05;;;;;;;;;;;21.50;34.30;;;;;;8364981;28;20342;-44
2022/04/30 04:58:05;;;;;;;;;;;21.50;34.20;;;;;;8365912;28;20309;-45
2022/04/30 05:02:06;;;;;;;;;;;21.50;34.20;;;;;;8365457;28;20441;-46
2022/04/30 05:06:07;;;;;;;;;;;21.60;34.40;;;;;;8364655;28;19925;-45
2022/04/30 05:10:07;;;;;;;;;;;21.50;34.40;;;;;;8365512;28;19917;-44
2022/04/30 05:14:08;;;;;;;;;;;21.50;34.30;;;;;;8365119;28;20334;-45
2022/04/30 05:18:08;;;;;;;;;;;21.50;34.40;;;;;;8364543;28;19916;-44
2022/04/30 05:22:09;;;;;;;;;;;21.50;34.50;;;;;;8364796;28;19936;-43
2022/04/30 05:26:09;;;;;;;;;;;21.50;34.50;;;;;;8364734;28;19912;-45
2022/04/30 05:30:10;;;;;;;;;;;21.50;34.60;;;;;;8364102;28;19923;-44
2022/04/30 05:34:11;;;;;;;;;;;21.50;34.60;;;;;;8364525;28;20007;-45
2022/04/30 05:38:11;;;;;;;;;;;21.50;34.60;;;;;;8364563;28;20409;-45
2022/04/30 05:42:11;;;;;;;;;;;21.50;34.60;;;;;;8363622;28;19924;-45
2022/04/30 05:46:13;;;;;;;;;;;21.50;34.70;;;;;;8363402;28;19923;-46
2022/04/30 05:50:13;;;;;;;;;;;21.50;34.70;;;;;;8364043;28;19913;-45
2022/04/30 05:54:14;;;;;;;;;;;21.50;34.70;;;;;;8363322;28;20388;-45
2022/04/30 05:58:14;;;;;;;;;;;21.50;34.70;;;;;;8363948;28;19939;-45
2022/04/30 06:02:14;;;;;;;;;;;21.50;34.70;;;;;;8363433;28;20007;-46
2022/04/30 06:06:15;;;;;;;;;;;21.50;34.70;;;;;;8345350;28;19925;-45
2022/04/30 06:10:15;;;;;;;;;;;21.50;34.70;;;;;;8363407;28;19920;-49
2022/04/30 06:14:16;;;;;;;;;;;21.50;34.80;;;;;;8363451;28;20289;-45
2022/04/30 06:18:17;;;;;;;;;;;21.40;34.70;;;;;;8362726;28;19985;-47
2022/04/30 06:22:17;;;;;;;;;;;21.50;34.70;;;;;;8363280;28;19935;-49
2022/04/30 06:26:18;;;;;;;;;;;21.40;34.70;;;;;;8363273;28;19943;-46
2022/04/30 06:30:18;;;;;;;;;;;21.50;34.70;;;;;;8362655;28;19917;-51
2022/04/30 06:34:19;;;;;;;;;;;21.50;34.80;;;;;;8363271;28;19991;-46
2022/04/30 06:38:19;;;;;;;;;;;21.50;34.70;;;;;;8362995;28;19939;-46
2022/04/30 06:42:20;;;;;;;;;;;21.50;34.80;;;;;;8362241;28;19925;-51
2022/04/30 06:46:20;;;;;;;;;;;21.50;34.70;;;;;;8363040;28;19920;-46
2022/04/30 06:50:21;;;;;;;;;;;21.50;34.80;;;;;;8362786;28;19916;-47
2022/04/30 06:58:43;;;;;;;;;;;21.50;34.80;;;;;;8371681;28;19994;-49
2022/04/30 07:02:44;;;;;;;;;;;21.50;34.80;;;;;;8368271;28;19999;-46
2022/04/30 07:06:45;;;;;;;;;;;21.50;34.70;;;;;;8367301;28;19920;-45
2022/04/30 07:10:46;;;;;;;;;;;21.50;34.70;;;;;;8368693;28;19913;-45
2022/04/30 07:14:48;;;;;;;;;;;21.50;34.80;;;;;;8368347;28;19924;-46
2022/04/30 07:18:49;;;;;;;;;;;21.50;34.70;;;;;;8369000;28;20285;-49
2022/04/30 07:22:49;;;;;;;;;;;21.50;34.70;;;;;;8368466;28;19951;-46
2022/04/30 07:26:50;;;;;;;;;;;21.50;34.70;;;;;;8382481;28;19916;-47
2022/04/30 07:30:51;;;;;;;;;;;21.50;34.70;;;;;;8384557;28;19918;-51
2022/04/30 07:34:53;;;;;;;;;;;21.50;34.70;;;;;;8335423;28;20367;-45
2022/04/30 07:38:55;;;;;;;;;;;21.60;34.60;;;;;;8334646;28;20345;-49
2022/04/30 07:42:57;;;;;;;;;;;21.60;34.60;;;;;;8334712;28;19999;-46
2022/04/30 07:46:58;;;;;;;;;;;21.60;34.50;;;;;;8334581;28;20389;-47
2022/04/30 07:50:59;;;;;;;;;;;21.70;34.50;;;;;;8334062;28;19918;-47
2022/04/30 07:55:02;;;;;;;;;;;21.70;34.50;;;;;;8335059;28;19920;-47
2022/04/30 07:59:03;;;;;;;;;;;21.70;34.50;;;;;;8334723;28;19917;-49
2022/04/30 08:03:04;;;;;;;;;;;21.70;35.00;;;;;;8358555;28;19963;-46
2022/04/30 08:07:04;;;;;;;;;;;21.70;34.40;;;;;;8365938;28;19924;-48
2022/04/30 08:11:04;;;;;;;;;;;21.70;34.30;;;;;;8366914;28;19940;-46
2022/04/30 08:15:05;;;;;;;;;;;21.70;34.30;;;;;;8345345;28;20420;-47
2022/04/30 08:19:06;;;;;;;;;;;21.70;34.30;;;;;;8333504;28;19917;-47
2022/04/30 08:23:07;;;;;;;;;;;21.80;34.30;;;;;;8333537;28;20310;-46
2022/04/30 08:27:07;;;;;;;;;;;21.80;34.30;;;;;;8333414;28;19944;-50
2022/04/30 08:31:08;;;;;;;;;;;21.80;34.30;;;;;;8333186;28;19917;-47
2022/04/30 08:35:08;;;;;;;;;;;21.80;34.30;;;;;;8333631;28;19913;-45
2022/04/30 08:39:08;;;;;;;;;;;21.80;34.30;;;;;;8333083;28;20358;-48
2022/04/30 08:43:10;;;;;;;;;;;21.80;34.30;;;;;;8332853;28;20012;-45
2022/04/30 08:47:11;;;;;;;;;;;21.90;34.30;;;;;;8333138;28;20004;-47
2022/04/30 08:51:12;;;;;;;;;;;21.90;34.30;;;;;;8332339;28;20294;-46
2022/04/30 08:55:12;;;;;;;;;;;21.90;34.20;;;;;;8333067;28;19913;-45
2022/04/30 08:59:13;;;;;;;;;;;21.90;34.20;;;;;;8332396;28;19963;-45
2022/04/30 09:03:17;;;;;;;;;;;22.00;34.30;;;;;;8331725;28;20341;-44
2022/04/30 09:07:21;;;;;;;;;;;22.00;34.20;;;;;;8332276;28;19967;-50
2022/04/30 09:11:28;;;;;;;;;;;22.00;34.20;;;;;;8331958;28;19917;-47
2022/04/30 09:15:29;;;;;;;;;;;22.00;34.20;;;;;;8331766;28;19944;-45
2022/04/30 09:19:30;;;;;;;;;;;22.00;34.20;;;;;;8331816;28;20274;-49
2022/04/30 09:23:31;;;;;;;;;;;22.10;34.10;;;;;;8332110;28;20004;-45
2022/04/30 09:27:32;;;;;;;;;;;22.10;34.10;;;;;;8331134;28;19917;-46
2022/04/30 09:31:33;;;;;;;;;;;22.20;34.20;;;;;;8331350;28;19932;-47
2022/04/30 09:39:56;;;;;;;;;;;22.20;34.10;;;;;;8337666;28;19979;-44
2022/04/30 09:44:00;;;;;;;;;;;22.20;34.00;;;;;;8330879;28;19925;-47
2022/04/30 09:53:55;;;;;;;;;;;22.20;34.00;;;;;;8330245;28;20362;-45
2022/04/30 09:56:44;;;;;;;;;;;22.10;34.10;;;;;;8335447;28;20199;-45
2022/04/30 10:00:45;;;;;;;;;;;22.00;34.10;;;;;;8363766;28;19913;-46
2022/04/30 10:04:46;;;;;;;;;;;22.10;34.20;;;;;;8347857;28;19925;-47
2022/04/30 10:08:47;;;;;;;;;;;22.00;34.20;;;;;;8329993;28;19917;-47
2022/04/30 10:12:52;;;;;;;;;;;22.00;34.30;;;;;;8330306;28;19929;-45
2022/04/30 10:17:28;;;;;;;;;;;22.00;34.30;;;;;;8330232;28;20008;-46
2022/04/30 10:21:19;;;;;;;;;;;22.10;34.40;;;;;;8326844;28;19940;-46
2022/04/30 10:25:31;;;;;;;;;;;22.10;34.40;;;;;;8330466;28;19913;-45
2022/04/30 10:29:31;;;;;;;;;;;22.20;34.50;;;;;;8330745;28;19987;-45
2022/04/30 10:33:32;;;;;;;;;;;22.20;34.60;;;;;;8340362;28;19917;-45
2022/04/30 10:37:34;;;;;;;;;;;22.20;34.50;;;;;;8341053;28;19917;-46
2022/04/30 10:41:45;;;;;;;;;;;22.20;34.60;;;;;;8340262;28;19925;-47
2022/04/30 10:45:45;;;;;;;;;;;22.20;34.60;;;;;;8340989;28;19991;-46
2022/04/30 10:49:46;;;;;;;;;;;22.20;34.60;;;;;;8340935;28;19918;-46
2022/04/30 10:53:47;;;;;;;;;;;22.20;34.70;;;;;;8340128;28;20404;-45
2022/04/30 10:57:47;;;;;;;;;;;22.20;34.70;;;;;;8340718;28;19960;-45
2022/04/30 11:01:48;;;;;;;;;;;22.10;34.70;;;;;;8340621;28;19929;-46
2022/04/30 11:05:48;;;;;;;;;;;22.10;34.70;;;;;;8340291;28;19921;-45
2022/04/30 11:09:49;;;;;;;;;;;22.10;34.80;;;;;;8340229;28;19924;-44
2022/04/30 11:13:58;;;;;;;;;;;22.10;34.80;;;;;;8340561;28;19940;-45
2022/04/30 11:17:59;;;;;;;;;;;22.10;34.80;;;;;;8339852;28;19921;-46
2022/04/30 11:22:00;;;;;;;;;;;22.10;34.90;;;;;;8339966;28;19932;-48
2022/04/30 11:26:01;;;;;;;;;;;22.10;34.80;;;;;;8340316;28;20294;-44
2022/04/30 11:30:02;;;;;;;;;;;22.10;34.90;;;;;;8339745;28;19963;-47
2022/04/30 11:34:12;;;;;;;;;;;22.00;34.80;;;;;;8340221;28;19924;-47
2022/04/30 11:38:13;;;;;;;;;;;22.00;34.80;;;;;;8339752;28;19921;-44
2022/04/30 11:42:13;;;;;;;;;;;22.10;34.90;;;;;;8337459;28;19931;-45
2022/04/30 11:46:14;;;;;;;;;;;22.00;34.90;;;;;;8334960;28;19932;-45
2022/04/30 11:50:14;;;;;;;;;;;22.10;34.90;;;;;;8334661;28;20391;-49
2022/04/30 11:54:18;;;;;;;;;;;22.10;34.90;;;;;;8334151;28;19924;-45
2022/04/30 11:58:18;;;;;;;;;;;22.00;34.90;;;;;;8334422;28;19968;-48
2022/04/30 12:02:20;;;;;;;;;;;22.00;34.90;;;;;;8333946;28;19925;-44
2022/04/30 12:06:20;;;;;;;;;;;22.10;34.90;;;;;;8334243;28;19932;-46
2022/04/30 12:10:26;;;;;;;;;;;22.10;34.90;;;;;;8334113;28;20324;-45
2022/04/30 12:14:26;;;;;;;;;;;22.10;34.90;;;;;;8333967;28;19913;-47
2022/04/30 12:27:19;;;;;;;;;;;22.30;34.90;;;;;;8333059;28;19972;-49
2022/04/30 12:31:20;;;;;;;;;;;22.30;34.80;;;;;;8333769;28;20354;-45
2022/04/30 12:35:38;;;;;;;;;;;22.30;34.80;;;;;;8333325;28;19964;-46
2022/04/30 12:39:40;;;;;;;;;;;22.30;34.80;;;;;;8332992;28;20326;-44
2022/04/30 12:43:41;;;;;;;;;;;22.30;34.80;;;;;;8359054;28;19927;-45
2022/04/30 12:47:42;;;;;;;;;;;22.30;34.70;;;;;;8386030;28;19921;-46
2022/04/30 12:51:44;;;;;;;;;;;22.30;34.80;;;;;;8333081;28;19951;-50
2022/04/30 12:55:45;;;;;;;;;;;22.30;34.80;;;;;;8332192;28;19967;-47
2022/04/30 12:59:45;;;;;;;;;;;22.30;34.70;;;;;;8332059;28;19932;-47
2022/04/30 13:03:45;;;;;;;;;;;22.30;34.70;;;;;;8332398;28;20337;-45
2022/04/30 13:07:46;;;;;;;;;;;22.30;34.80;;;;;;8339738;28;20046;-50
2022/04/30 13:16:09;;;;;;;;;;;22.20;34.70;;;;;;8364962;28;19923;-45
2022/04/30 13:20:11;;;;;;;;;;;22.20;34.60;;;;;;8364842;28;19969;-45
2022/04/30 13:24:12;;;;;;;;;;;22.20;34.60;;;;;;8363944;28;19924;-46
2022/04/30 13:28:12;;;;;;;;;;;22.20;34.60;;;;;;8364476;28;19917;-49
2022/04/30 13:32:13;;;;;;;;;;;22.20;34.60;;;;;;8364724;28;19996;-46
2022/04/30 13:36:13;;;;;;;;;;;22.20;34.70;;;;;;8363839;28;19924;-45
2022/04/30 13:40:14;;;;;;;;;;;22.20;35.30;;;;;;8364102;28;19917;-46
2022/04/30 13:44:15;;;;;;;;;;;22.10;34.70;;;;;;8348211;28;19925;-47
2022/04/30 13:48:15;;;;;;;;;;;22.20;34.70;;;;;;8330390;28;20357;-46
2022/04/30 13:52:16;;;;;;;;;;;22.10;35.30;;;;;;8331349;28;19914;-47
2022/04/30 13:56:16;;;;;;;;;;;22.10;34.70;;;;;;8330971;28;19956;-50
2022/04/30 14:00:20;;;;;;;;;;;22.20;34.70;;;;;;8330339;28;19917;-47
2022/04/30 14:04:21;;;;;;;;;;;22.20;34.70;;;;;;8330611;28;20285;-46
2022/04/30 14:08:21;;;;;;;;;;;22.10;34.70;;;;;;8330056;28;19917;-47
2022/04/30 14:12:22;;;;;;;;;;;22.10;34.80;;;;;;8330167;28;19913;-49
2022/04/30 14:16:22;;;;;;;;;;;22.10;34.80;;;;;;8330204;28;19956;-48
2022/04/30 14:20:22;;;;;;;;;;;22.10;34.80;;;;;;8330343;28;19917;-47
2022/04/30 14:24:23;;;;;;;;;;;22.10;34.80;;;;;;8329557;28;19972;-46
2022/04/30 14:28:23;;;;;;;;;;;22.10;34.90;;;;;;8330338;28;20015;-51
2022/04/30 14:32:24;;;;;;;;;;;22.10;34.90;;;;;;8330367;28;19960;-48
2022/04/30 14:36:24;;;;;;;;;;;22.10;35.00;;;;;;8329576;28;20389;-47
2022/04/30 14:40:28;;;;;;;;;;;22.00;34.90;;;;;;8330383;28;19917;-49
2022/04/30 14:44:29;;;;;;;;;;;22.10;35.00;;;;;;8329988;28;19929;-47
2022/04/30 14:48:29;;;;;;;;;;;22.00;35.00;;;;;;8329542;28;19917;-45
2022/04/30 14:52:30;;;;;;;;;;;22.00;35.00;;;;;;8330096;28;19913;-47
2022/04/30 14:56:30;;;;;;;;;;;22.00;35.00;;;;;;8329779;28;20386;-46
2022/04/30 15:00:31;;;;;;;;;;;22.00;35.00;;;;;;8329297;28;19917;-48
2022/04/30 15:04:32;;;;;;;;;;;22.00;35.10;;;;;;8329694;28;19925;-46
2022/04/30 15:08:32;;;;;;;;;;;22.00;35.10;;;;;;8329428;28;19971;-46
2022/04/30 15:12:34;;;;;;;;;;;22.00;35.10;;;;;;8329071;28;19992;-45
2022/04/30 15:16:34;;;;;;;;;;;21.90;35.10;;;;;;8330753;28;20224;-47
2022/04/30 15:20:35;;;;;;;;;;;22.00;35.20;;;;;;8335123;28;19917;-46
2022/04/30 15:24:35;;;;;;;;;;;21.90;35.10;;;;;;8335590;28;20341;-46
2022/04/30 15:28:36;;;;;;;;;;;21.90;35.10;;;;;;8335450;28;19924;-48
2022/04/30 15:32:36;;;;;;;;;;;22.00;35.20;;;;;;8334932;28;19924;-46
2022/04/30 15:36:39;;;;;;;;;;;21.90;35.10;;;;;;8335644;28;19933;-45
2022/04/30 15:40:40;;;;;;;;;;;21.90;35.10;;;;;;8334710;28;19917;-47
2022/04/30 15:44:40;;;;;;;;;;;22.00;35.20;;;;;;8334371;28;19925;-47
2022/04/30 15:53:00;;;;;;;;;;;21.90;35.20;;;;;;8335102;28;19920;-46
2022/04/30 15:57:01;;;;;;;;;;;21.90;35.20;;;;;;8334054;28;19929;-46
2022/04/30 16:01:02;;;;;;;;;;;21.90;35.20;;;;;;8334258;28;19924;-46
2022/04/30 16:05:02;;;;;;;;;;;21.90;35.20;;;;;;8333610;28;20301;-46
2022/04/30 16:09:03;;;;;;;;;;;21.90;35.20;;;;;;8333671;28;19979;-46
2022/04/30 16:13:03;;;;;;;;;;;21.90;35.30;;;;;;8334243;28;19920;-46
2022/04/30 16:17:05;;;;;;;;;;;21.90;35.30;;;;;;8333945;28;19972;-47
2022/04/30 16:21:06;;;;;;;;;;;21.90;35.30;;;;;;8333190;28;19924;-46
2022/04/30 16:25:09;;;;;;;;;;;21.90;35.30;;;;;;8333840;28;20368;-45
2022/04/30 16:29:10;;;;;;;;;;;21.90;35.30;;;;;;8332733;28;19971;-45
2022/04/30 16:33:11;;;;;;;;;;;21.90;35.20;;;;;;8333259;28;19913;-46
2022/04/30 16:37:11;;;;;;;;;;;22.00;35.30;;;;;;8333521;28;20422;-46
2022/04/30 16:41:14;;;;;;;;;;;21.90;35.30;;;;;;8333213;28;19918;-46
2022/04/30 16:45:15;;;;;;;;;;;21.90;35.30;;;;;;8332253;28;19922;-46
2022/04/30 16:49:16;;;;;;;;;;;21.90;35.30;;;;;;8333285;28;19917;-45
2022/04/30 16:53:16;;;;;;;;;;;21.90;35.30;;;;;;8332984;28;19913;-46
2022/04/30 16:57:18;;;;;;;;;;;21.90;35.30;;;;;;8332209;28;19918;-46
2022/04/30 17:01:18;;;;;;;;;;;21.90;35.30;;;;;;8332197;28;19924;-46
2022/04/30 17:05:19;;;;;;;;;;;21.90;35.30;;;;;;8332431;28;19936;-48
2022/04/30 17:09:23;;;;;;;;;;;21.90;35.30;;;;;;8330989;28;21360;-45
2022/04/30 17:13:23;;;;;;;;;;;21.90;35.30;;;;;;8332123;28;19913;-47
2022/04/30 17:17:24;;;;;;;;;;;21.90;35.30;;;;;;8331767;28;19921;-52
2022/04/30 17:21:24;;;;;;;;;;;21.90;35.80;;;;;;8331173;28;20359;-50
2022/04/30 17:25:25;;;;;;;;;;;21.80;35.20;;;;;;8331880;28;19924;-46
2022/04/30 17:29:25;;;;;;;;;;;21.80;35.30;;;;;;8331605;28;19951;-48
2022/04/30 17:38:01;;;;;;;;;;;21.80;35.30;;;;;;8336418;28;20043;-46
2022/04/30 17:42:02;;;;;;;;;;;21.80;35.30;;;;;;8330622;28;20016;-46
2022/04/30 17:46:05;;;;;;;;;;;21.80;35.40;;;;;;8331474;28;20000;-47
2022/04/30 17:50:06;;;;;;;;;;;21.80;35.40;;;;;;8331038;28;19917;-46
2022/04/30 17:54:06;;;;;;;;;;;21.80;35.40;;;;;;8330366;28;19940;-46
2022/04/30 17:58:07;;;;;;;;;;;21.80;35.40;;;;;;8331057;28;19917;-46
2022/04/30 18:02:08;;;;;;;;;;;21.80;35.40;;;;;;8330806;28;20000;-47
2022/04/30 18:06:08;;;;;;;;;;;21.70;35.30;;;;;;8330554;28;19921;-48
2022/04/30 18:10:09;;;;;;;;;;;21.70;35.40;;;;;;8330501;28;19921;-48
2022/04/30 18:14:14;;;;;;;;;;;21.70;35.40;;;;;;8330396;28;20385;-46
2022/04/30 18:18:15;;;;;;;;;;;21.70;35.40;;;;;;8330158;28;19917;-45
2022/04/30 18:22:15;;;;;;;;;;;21.70;35.40;;;;;;8330132;28;19948;-47
2022/04/30 18:26:16;;;;;;;;;;;21.70;35.40;;;;;;8330241;28;19913;-46
2022/04/30 18:30:17;;;;;;;;;;;21.70;35.40;;;;;;8329654;28;19917;-47
2022/04/30 18:34:18;;;;;;;;;;;21.70;35.40;;;;;;8330233;28;19996;-46
2022/04/30 18:38:19;;;;;;;;;;;21.70;35.50;;;;;;8330104;28;20393;-46
2022/04/30 18:42:20;;;;;;;;;;;21.70;35.50;;;;;;8329321;28;19948;-47
2022/04/30 18:46:21;;;;;;;;;;;21.70;35.60;;;;;;8329790;28;19921;-47
2022/04/30 18:50:22;;;;;;;;;;;21.70;35.50;;;;;;8329923;28;19913;-46
2022/04/30 19:03:02;;;;;;;;;;;21.60;35.50;;;;;;8338571;28;19936;-47
2022/04/30 19:07:02;;;;;;;;;;;21.70;35.60;;;;;;8338886;28;19971;-47
2022/04/30 19:11:04;;;;;;;;;;;21.60;35.60;;;;;;8337670;28;19956;-46
2022/04/30 19:15:04;;;;;;;;;;;21.60;35.50;;;;;;8337047;28;19979;-46
2022/04/30 19:19:05;;;;;;;;;;;21.60;35.50;;;;;;8336894;28;20294;-47
2022/04/30 19:23:05;;;;;;;;;;;21.60;35.60;;;;;;8337012;28;20305;-46
2022/04/30 19:27:06;;;;;;;;;;;21.60;36.10;;;;;;8336130;28;19988;-46
2022/04/30 19:31:07;;;;;;;;;;;21.60;35.60;;;;;;8337469;28;19950;-46
2022/04/30 19:35:09;;;;;;;;;;;21.60;35.60;;;;;;8336581;28;19921;-46
2022/04/30 19:39:10;;;;;;;;;;;21.60;35.60;;;;;;8335428;28;20262;-46
2022/04/30 19:43:10;;;;;;;;;;;21.60;35.60;;;;;;8334898;28;19925;-45
2022/04/30 19:47:12;;;;;;;;;;;21.60;35.70;;;;;;8334829;28;19917;-46
2022/04/30 19:51:12;;;;;;;;;;;21.50;35.70;;;;;;8334396;28;19924;-46
2022/04/30 19:55:13;;;;;;;;;;;21.60;35.70;;;;;;8334964;28;19917;-48
2022/04/30 19:59:13;;;;;;;;;;;21.60;35.70;;;;;;8334719;28;19917;-47
2022/04/30 20:03:14;;;;;;;;;;;21.60;35.70;;;;;;8332447;28;19987;-46
2022/04/30 20:07:14;;;;;;;;;;;21.50;35.70;;;;;;8334225;28;20452;-47
2022/04/30 20:19:53;;;;;;;;;;;21.50;35.70;;;;;;8338831;28;20012;-48
2022/04/30 20:23:54;;;;;;;;;;;21.50;35.70;;;;;;8333261;28;19933;-47
2022/04/30 20:27:54;;;;;;;;;;;21.50;35.70;;;;;;8358056;28;20403;-46
2022/04/30 20:40:33;;;;;;;;;;;21.50;35.70;;;;;;8366594;28;19963;-45
2022/04/30 20:44:34;;;;;;;;;;;21.50;35.70;;;;;;8366274;28;19920;-47
2022/04/30 20:48:34;;;;;;;;;;;21.50;35.70;;;;;;8366045;28;20270;-49
2022/04/30 20:52:36;;;;;;;;;;;21.50;35.70;;;;;;8366063;28;19968;-46
2022/04/30 20:56:36;;;;;;;;;;;21.50;35.70;;;;;;8365245;28;19959;-46
2022/04/30 21:00:38;;;;;;;;;;;21.50;35.70;;;;;;8365585;28;19917;-47
2022/04/30 21:04:41;;;;;;;;;;;21.40;35.60;;;;;;8366174;28;20139;-48
2022/04/30 21:08:42;;;;;;;;;;;21.40;35.70;;;;;;8364945;28;20015;-47
2022/04/30 21:12:42;;;;;;;;;;;21.40;35.70;;;;;;8365404;28;19917;-46
2022/04/30 21:16:46;;;;;;;;;;;21.40;35.70;;;;;;8364724;28;19917;-46
2022/04/30 21:20:46;;;;;;;;;;;21.40;35.70;;;;;;8364282;28;19924;-47
2022/04/30 21:24:47;;;;;;;;;;;21.40;35.80;;;;;;8365143;28;20282;-48
2022/04/30 21:28:48;;;;;;;;;;;21.40;35.80;;;;;;8364599;28;20385;-46
2022/04/30 21:32:49;;;;;;;;;;;21.40;35.70;;;;;;8364192;28;19928;-50
2022/04/30 21:36:49;;;;;;;;;;;21.40;35.80;;;;;;8364469;28;19917;-50
2022/04/30 21:45:10;;;;;;;;;;;21.40;35.80;;;;;;8365292;28;19974;-46
2022/04/30 21:49:11;;;;;;;;;;;21.30;35.80;;;;;;8364332;28;19917;-47
2022/04/30 21:53:11;;;;;;;;;;;21.40;35.80;;;;;;8363890;28;20293;-47
2022/04/30 22:01:31;;;;;;;;;;;21.30;35.80;;;;;;8360929;28;19956;-48
2022/04/30 22:05:32;;;;;;;;;;;21.30;35.80;;;;;;8359874;28;19925;-46
2022/04/30 22:09:33;;;;;;;;;;;21.30;35.80;;;;;;8362173;28;20301;-47
2022/04/30 22:13:36;;;;;;;;;;;21.30;35.80;;;;;;8363306;28;19924;-46
2022/04/30 22:17:36;;;;;;;;;;;21.30;35.80;;;;;;8363019;28;20358;-46
2022/04/30 22:21:37;;;;;;;;;;;21.30;35.80;;;;;;8363202;28;19924;-46
2022/04/30 22:25:38;;;;;;;;;;;21.20;35.80;;;;;;8363096;28;19948;-46
2022/04/30 22:29:38;;;;;;;;;;;21.20;35.80;;;;;;8362587;28;19937;-46
2022/04/30 22:33:39;;;;;;;;;;;21.20;35.90;;;;;;8362999;28;19920;-46
2022/04/30 22:37:39;;;;;;;;;;;21.20;35.80;;;;;;8362840;28;19921;-47
2022/04/30 22:45:59;;;;;;;;;;;21.20;35.90;;;;;;8366896;28;19924;-45
2022/04/30 22:50:00;;;;;;;;;;;21.20;35.90;;;;;;8363021;28;20274;-47
2022/04/30 22:54:01;;;;;;;;;;;21.20;35.90;;;;;;8362155;28;20296;-47
2022/04/30 22:58:01;;;;;;;;;;;21.10;35.80;;;;;;8362674;28;19924;-45
2022/04/30 23:02:06;;;;;;;;;;;21.10;35.80;;;;;;8362543;28;19956;-47
2022/04/30 23:06:06;;;;;;;;;;;21.10;35.80;;;;;;8362304;28;19925;-47
2022/04/30 23:10:11;;;;;;;;;;;21.10;35.90;;;;;;8362705;28;19990;-46
2022/04/30 23:14:11;;;;;;;;;;;21.10;35.90;;;;;;8362540;28;19917;-47
2022/04/30 23:18:13;;;;;;;;;;;21.10;35.80;;;;;;8361829;28;19940;-46
2022/04/30 23:22:14;;;;;;;;;;;21.10;35.90;;;;;;8362161;28;20389;-47
2022/04/30 23:26:14;;;;;;;;;;;21.10;35.80;;;;;;8362344;28;19924;-47
2022/04/30 23:30:15;;;;;;;;;;;21.10;35.90;;;;;;8362013;28;19917;-46
2022/04/30 23:34:16;;;;;;;;;;;21.00;35.80;;;;;;8362283;28;19984;-47
2022/04/30 23:38:16;;;;;;;;;;;21.00;35.80;;;;;;8364379;28;20281;-48
2022/04/30 23:42:17;;;;;;;;;;;21.00;35.80;;;;;;8367560;28;19952;-46
2022/04/30 23:46:18;;;;;;;;;;;21.00;35.80;;;;;;8368283;28;20435;-46
2022/04/30 23:50:19;;;;;;;;;;;21.00;35.80;;;;;;8368016;28;19920;-47
2022/04/30 23:54:22;;;;;;;;;;;21.00;35.80;;;;;;8367303;28;20293;-47
2022/04/30 23:58:22;;;;;;;;;;;21.00;35.80;;;;;;8367783;28;20335;-47
